sensor_id;sensor_type;location;lat;lon;timestamp;P1;durP1;ratioP1;P2;durP2;ratioP2
53642;SDS011;39546;45.534;12.048;2023-10-08T00:03:02;11.95;;;10.13;;
53642;SDS011;39546;45.534;12.048;2023-10-08T00:09:07;10.82;;;8.10;;
53642;SDS011;39546;45.534;12.048;2023-10-08T00:15:09;13.00;;;8.95;;
53642;SDS011;39546;45.534;12.048;2023-10-08T00:21:12;11.18;;;8.32;;
53642;SDS011;39546;45.534;12.048;2023-10-08T00:27:14;12.05;;;10.85;;
53642;SDS011;39546;45.534;12.048;2023-10-08T00:33:16;12.18;;;10.68;;
53642;SDS011;39546;45.534;12.048;2023-10-08T00:39:18;9.82;;;8.77;;
53642;SDS011;39546;45.534;12.048;2023-10-08T00:45:38;13.52;;;8.45;;
53642;SDS011;39546;45.534;12.048;2023-10-08T00:51:45;12.02;;;9.98;;
53642;SDS011;39546;45.534;12.048;2023-10-08T00:58:00;11.12;;;8.85;;
53642;SDS011;39546;45.534;12.048;2023-10-08T01:04:10;10.75;;;8.50;;
53642;SDS011;39546;45.534;12.048;2023-10-08T01:10:17;15.07;;;11.50;;
53642;SDS011;39546;45.534;12.048;2023-10-08T01:16:23;11.30;;;9.98;;
53642;SDS011;39546;45.534;12.048;2023-10-08T01:22:28;14.32;;;10.50;;
53642;SDS011;39546;45.534;12.048;2023-10-08T01:28:31;15.80;;;12.00;;
53642;SDS011;39546;45.534;12.048;2023-10-08T01:34:34;13.77;;;10.65;;
53642;SDS011;39546;45.534;12.048;2023-10-08T01:40:38;11.95;;;9.50;;
53642;SDS011;39546;45.534;12.048;2023-10-08T01:46:41;12.95;;;10.82;;
53642;SDS011;39546;45.534;12.048;2023-10-08T01:52:44;15.50;;;10.48;;
53642;SDS011;39546;45.534;12.048;2023-10-08T01:58:48;14.40;;;11.50;;
53642;SDS011;39546;45.534;12.048;2023-10-08T02:04:50;13.02;;;9.55;;
53642;SDS011;39546;45.534;12.048;2023-10-08T02:10:52;11.27;;;8.82;;
53642;SDS011;39546;45.534;12.048;2023-10-08T02:16:54;10.88;;;7.85;;
53642;SDS011;39546;45.534;12.048;2023-10-08T02:22:58;12.35;;;10.73;;
53642;SDS011;39546;45.534;12.048;2023-10-08T02:29:01;13.82;;;10.40;;
53642;SDS011;39546;45.534;12.048;2023-10-08T02:35:05;12.88;;;9.13;;
53642;SDS011;39546;45.534;12.048;2023-10-08T02:41:08;12.23;;;9.68;;
53642;SDS011;39546;45.534;12.048;2023-10-08T02:47:10;13.82;;;12.35;;
53642;SDS011;39546;45.534;12.048;2023-10-08T02:53:13;14.38;;;10.48;;
53642;SDS011;39546;45.534;12.048;2023-10-08T02:59:28;10.07;;;8.98;;
53642;SDS011;39546;45.534;12.048;2023-10-08T03:05:45;11.35;;;9.35;;
53642;SDS011;39546;45.534;12.048;2023-10-08T03:11:49;13.70;;;9.75;;
53642;SDS011;39546;45.534;12.048;2023-10-08T03:17:55;14.07;;;10.90;;
53642;SDS011;39546;45.534;12.048;2023-10-08T03:23:59;15.38;;;8.68;;
53642;SDS011;39546;45.534;12.048;2023-10-08T03:30:01;14.43;;;11.50;;
53642;SDS011;39546;45.534;12.048;2023-10-08T03:36:04;13.23;;;10.85;;
53642;SDS011;39546;45.534;12.048;2023-10-08T03:42:10;14.87;;;9.63;;
53642;SDS011;39546;45.534;12.048;2023-10-08T03:48:15;12.57;;;10.23;;
53642;SDS011;39546;45.534;12.048;2023-10-08T03:54:18;11.12;;;10.00;;
53642;SDS011;39546;45.534;12.048;2023-10-08T04:00:31;12.95;;;10.27;;
53642;SDS011;39546;45.534;12.048;2023-10-08T04:06:33;12.60;;;8.63;;
53642;SDS011;39546;45.534;12.048;2023-10-08T04:12:38;12.13;;;9.38;;
53642;SDS011;39546;45.534;12.048;2023-10-08T04:18:52;10.57;;;8.90;;
53642;SDS011;39546;45.534;12.048;2023-10-08T04:24:56;13.75;;;9.95;;
53642;SDS011;39546;45.534;12.048;2023-10-08T04:31:01;14.00;;;10.48;;
53642;SDS011;39546;45.534;12.048;2023-10-08T04:37:15;9.75;;;6.70;;
53642;SDS011;39546;45.534;12.048;2023-10-08T04:43:22;11.18;;;9.13;;
53642;SDS011;39546;45.534;12.048;2023-10-08T04:49:39;14.57;;;11.95;;
53642;SDS011;39546;45.534;12.048;2023-10-08T04:55:46;9.38;;;7.57;;
53642;SDS011;39546;45.534;12.048;2023-10-08T05:01:49;13.20;;;11.85;;
53642;SDS011;39546;45.534;12.048;2023-10-08T05:08:10;10.65;;;8.80;;
53642;SDS011;39546;45.534;12.048;2023-10-08T05:14:28;11.60;;;8.35;;
53642;SDS011;39546;45.534;12.048;2023-10-08T05:20:40;14.20;;;10.88;;
53642;SDS011;39546;45.534;12.048;2023-10-08T05:26:51;12.73;;;10.02;;
53642;SDS011;39546;45.534;12.048;2023-10-08T05:33:10;11.05;;;9.77;;
53642;SDS011;39546;45.534;12.048;2023-10-08T05:39:18;11.48;;;10.27;;
53642;SDS011;39546;45.534;12.048;2023-10-08T05:45:43;13.02;;;10.70;;
53642;SDS011;39546;45.534;12.048;2023-10-08T05:51:54;17.10;;;13.23;;
53642;SDS011;39546;45.534;12.048;2023-10-08T05:58:06;15.27;;;10.32;;
53642;SDS011;39546;45.534;12.048;2023-10-08T06:04:20;12.60;;;10.43;;
53642;SDS011;39546;45.534;12.048;2023-10-08T06:10:42;14.02;;;11.77;;
53642;SDS011;39546;45.534;12.048;2023-10-08T06:16:47;11.82;;;8.25;;
53642;SDS011;39546;45.534;12.048;2023-10-08T06:23:03;14.45;;;11.50;;
53642;SDS011;39546;45.534;12.048;2023-10-08T06:29:10;12.95;;;9.93;;
53642;SDS011;39546;45.534;12.048;2023-10-08T06:35:34;9.95;;;7.20;;
53642;SDS011;39546;45.534;12.048;2023-10-08T06:42:00;13.75;;;9.98;;
53642;SDS011;39546;45.534;12.048;2023-10-08T06:48:05;14.87;;;11.60;;
53642;SDS011;39546;45.534;12.048;2023-10-08T06:54:08;13.70;;;10.48;;
53642;SDS011;39546;45.534;12.048;2023-10-08T07:00:12;12.90;;;9.70;;
53642;SDS011;39546;45.534;12.048;2023-10-08T07:06:34;12.07;;;9.38;;
53642;SDS011;39546;45.534;12.048;2023-10-08T07:12:38;11.57;;;8.65;;
53642;SDS011;39546;45.534;12.048;2023-10-08T07:18:42;14.73;;;10.77;;
53642;SDS011;39546;45.534;12.048;2023-10-08T07:24:57;15.63;;;12.25;;
53642;SDS011;39546;45.534;12.048;2023-10-08T07:30:59;14.85;;;11.25;;
53642;SDS011;39546;45.534;12.048;2023-10-08T07:37:01;13.48;;;11.93;;
53642;SDS011;39546;45.534;12.048;2023-10-08T07:43:17;14.00;;;11.35;;
53642;SDS011;39546;45.534;12.048;2023-10-08T07:49:22;14.38;;;10.68;;
53642;SDS011;39546;45.534;12.048;2023-10-08T07:55:26;14.25;;;10.63;;
53642;SDS011;39546;45.534;12.048;2023-10-08T08:01:29;19.58;;;12.50;;
53642;SDS011;39546;45.534;12.048;2023-10-08T08:07:31;17.90;;;14.30;;
53642;SDS011;39546;45.534;12.048;2023-10-08T08:13:34;13.82;;;11.12;;
53642;SDS011;39546;45.534;12.048;2023-10-08T08:19:36;13.27;;;11.73;;
53642;SDS011;39546;45.534;12.048;2023-10-08T08:25:39;19.10;;;11.90;;
53642;SDS011;39546;45.534;12.048;2023-10-08T08:32:08;11.68;;;8.95;;
53642;SDS011;39546;45.534;12.048;2023-10-08T08:38:11;17.45;;;12.30;;
53642;SDS011;39546;45.534;12.048;2023-10-08T08:44:13;16.45;;;11.77;;
53642;SDS011;39546;45.534;12.048;2023-10-08T08:50:16;18.50;;;11.45;;
53642;SDS011;39546;45.534;12.048;2023-10-08T08:56:19;20.02;;;12.30;;
53642;SDS011;39546;45.534;12.048;2023-10-08T09:02:22;15.60;;;11.38;;
53642;SDS011;39546;45.534;12.048;2023-10-08T09:08:42;16.33;;;10.55;;
53642;SDS011;39546;45.534;12.048;2023-10-08T09:15:01;10.65;;;8.23;;
53642;SDS011;39546;45.534;12.048;2023-10-08T09:21:08;15.93;;;10.80;;
53642;SDS011;39546;45.534;12.048;2023-10-08T09:27:15;16.12;;;11.63;;
53642;SDS011;39546;45.534;12.048;2023-10-08T09:33:54;15.82;;;11.70;;
53642;SDS011;39546;45.534;12.048;2023-10-08T09:46:24;16.87;;;13.45;;
53642;SDS011;39546;45.534;12.048;2023-10-08T09:52:36;15.60;;;11.63;;
53642;SDS011;39546;45.534;12.048;2023-10-08T09:58:46;15.40;;;9.02;;
53642;SDS011;39546;45.534;12.048;2023-10-08T10:04:50;15.25;;;10.60;;
53642;SDS011;39546;45.534;12.048;2023-10-08T10:11:15;13.50;;;10.05;;
53642;SDS011;39546;45.534;12.048;2023-10-08T10:17:20;12.57;;;9.23;;
53642;SDS011;39546;45.534;12.048;2023-10-08T10:29:42;15.13;;;9.45;;
53642;SDS011;39546;45.534;12.048;2023-10-08T10:35:51;15.98;;;10.98;;
53642;SDS011;39546;45.534;12.048;2023-10-08T10:41:54;11.63;;;8.75;;
53642;SDS011;39546;45.534;12.048;2023-10-08T10:48:02;13.95;;;9.75;;
53642;SDS011;39546;45.534;12.048;2023-10-08T10:54:21;12.98;;;8.07;;
53642;SDS011;39546;45.534;12.048;2023-10-08T11:00:25;13.13;;;9.68;;
53642;SDS011;39546;45.534;12.048;2023-10-08T11:06:45;9.90;;;6.93;;
53642;SDS011;39546;45.534;12.048;2023-10-08T11:12:58;13.70;;;8.90;;
53642;SDS011;39546;45.534;12.048;2023-10-08T11:19:07;13.05;;;8.20;;
53642;SDS011;39546;45.534;12.048;2023-10-08T11:25:23;12.82;;;8.88;;
53642;SDS011;39546;45.534;12.048;2023-10-08T11:31:32;13.65;;;8.65;;
53642;SDS011;39546;45.534;12.048;2023-10-08T11:37:36;12.32;;;7.97;;
53642;SDS011;39546;45.534;12.048;2023-10-08T11:43:44;12.68;;;7.80;;
53642;SDS011;39546;45.534;12.048;2023-10-08T11:49:47;12.60;;;8.03;;
53642;SDS011;39546;45.534;12.048;2023-10-08T11:56:03;11.15;;;7.37;;
53642;SDS011;39546;45.534;12.048;2023-10-08T12:02:14;12.48;;;7.70;;
53642;SDS011;39546;45.534;12.048;2023-10-08T12:08:18;12.55;;;8.52;;
53642;SDS011;39546;45.534;12.048;2023-10-08T12:14:24;10.60;;;6.80;;
53642;SDS011;39546;45.534;12.048;2023-10-08T12:20:39;15.13;;;6.72;;
53642;SDS011;39546;45.534;12.048;2023-10-08T12:26:45;8.77;;;6.18;;
53642;SDS011;39546;45.534;12.048;2023-10-08T12:32:47;13.68;;;6.03;;
53642;SDS011;39546;45.534;12.048;2023-10-08T12:38:50;9.35;;;7.00;;
53642;SDS011;39546;45.534;12.048;2023-10-08T12:45:01;19.37;;;7.10;;
53642;SDS011;39546;45.534;12.048;2023-10-08T12:51:03;9.60;;;7.20;;
53642;SDS011;39546;45.534;12.048;2023-10-08T12:57:07;12.65;;;6.12;;
53642;SDS011;39546;45.534;12.048;2023-10-08T13:03:11;11.95;;;7.55;;
53642;SDS011;39546;45.534;12.048;2023-10-08T13:09:16;15.13;;;5.87;;
53642;SDS011;39546;45.534;12.048;2023-10-08T13:15:18;9.23;;;6.32;;
53642;SDS011;39546;45.534;12.048;2023-10-08T13:21:21;18.80;;;8.77;;
53642;SDS011;39546;45.534;12.048;2023-10-08T13:27:26;13.20;;;6.20;;
53642;SDS011;39546;45.534;12.048;2023-10-08T13:33:28;10.45;;;8.00;;
53642;SDS011;39546;45.534;12.048;2023-10-08T13:39:31;9.05;;;5.72;;
53642;SDS011;39546;45.534;12.048;2023-10-08T13:45:33;10.15;;;5.40;;
53642;SDS011;39546;45.534;12.048;2023-10-08T13:51:38;8.68;;;6.05;;
53642;SDS011;39546;45.534;12.048;2023-10-08T13:57:40;11.60;;;7.70;;
53642;SDS011;39546;45.534;12.048;2023-10-08T14:03:52;9.57;;;5.78;;
53642;SDS011;39546;45.534;12.048;2023-10-08T14:09:57;10.48;;;7.15;;
53642;SDS011;39546;45.534;12.048;2023-10-08T14:16:03;8.52;;;6.07;;
53642;SDS011;39546;45.534;12.048;2023-10-08T14:22:09;14.25;;;6.10;;
53642;SDS011;39546;45.534;12.048;2023-10-08T14:28:15;15.05;;;6.25;;
53642;SDS011;39546;45.534;12.048;2023-10-08T14:34:23;9.57;;;6.10;;
53642;SDS011;39546;45.534;12.048;2023-10-08T14:40:44;18.85;;;5.87;;
53642;SDS011;39546;45.534;12.048;2023-10-08T14:47:23;8.66;;;5.34;;
53642;SDS011;39546;45.534;12.048;2023-10-08T14:54:09;7.20;;;4.45;;
53642;SDS011;39546;45.534;12.048;2023-10-08T15:00:11;12.52;;;5.25;;
53642;SDS011;39546;45.534;12.048;2023-10-08T15:06:13;7.95;;;3.80;;
53642;SDS011;39546;45.534;12.048;2023-10-08T15:12:15;8.90;;;5.62;;
53642;SDS011;39546;45.534;12.048;2023-10-08T15:18:19;8.27;;;4.93;;
53642;SDS011;39546;45.534;12.048;2023-10-08T15:24:21;10.35;;;4.80;;
53642;SDS011;39546;45.534;12.048;2023-10-08T15:30:24;8.60;;;4.25;;
53642;SDS011;39546;45.534;12.048;2023-10-08T15:36:27;10.85;;;4.32;;
53642;SDS011;39546;45.534;12.048;2023-10-08T15:42:29;7.25;;;4.62;;
53642;SDS011;39546;45.534;12.048;2023-10-08T15:48:31;6.72;;;4.40;;
53642;SDS011;39546;45.534;12.048;2023-10-08T15:54:35;6.72;;;4.10;;
53642;SDS011;39546;45.534;12.048;2023-10-08T16:00:37;10.20;;;4.60;;
53642;SDS011;39546;45.534;12.048;2023-10-08T16:06:39;8.57;;;5.18;;
53642;SDS011;39546;45.534;12.048;2023-10-08T16:12:41;8.18;;;5.07;;
53642;SDS011;39546;45.534;12.048;2023-10-08T16:24:51;11.48;;;4.47;;
53642;SDS011;39546;45.534;12.048;2023-10-08T16:30:56;10.05;;;4.30;;
53642;SDS011;39546;45.534;12.048;2023-10-08T16:37:17;13.27;;;5.70;;
53642;SDS011;39546;45.534;12.048;2023-10-08T16:43:23;7.12;;;4.47;;
53642;SDS011;39546;45.534;12.048;2023-10-08T16:49:25;7.75;;;4.72;;
53642;SDS011;39546;45.534;12.048;2023-10-08T16:55:30;8.05;;;4.65;;
53642;SDS011;39546;45.534;12.048;2023-10-08T17:01:33;8.57;;;5.32;;
53642;SDS011;39546;45.534;12.048;2023-10-08T17:07:37;9.32;;;5.60;;
53642;SDS011;39546;45.534;12.048;2023-10-08T17:13:39;10.55;;;5.60;;
53642;SDS011;39546;45.534;12.048;2023-10-08T17:19:43;11.27;;;6.82;;
53642;SDS011;39546;45.534;12.048;2023-10-08T17:25:45;12.40;;;8.63;;
53642;SDS011;39546;45.534;12.048;2023-10-08T17:31:52;18.47;;;12.83;;
53642;SDS011;39546;45.534;12.048;2023-10-08T17:37:56;18.45;;;13.85;;
53642;SDS011;39546;45.534;12.048;2023-10-08T17:43:59;23.33;;;13.98;;
53642;SDS011;39546;45.534;12.048;2023-10-08T17:50:02;17.77;;;12.50;;
53642;SDS011;39546;45.534;12.048;2023-10-08T17:56:04;20.00;;;14.18;;
53642;SDS011;39546;45.534;12.048;2023-10-08T18:02:08;21.67;;;14.10;;
53642;SDS011;39546;45.534;12.048;2023-10-08T18:08:12;18.90;;;13.85;;
53642;SDS011;39546;45.534;12.048;2023-10-08T18:14:14;18.60;;;13.10;;
53642;SDS011;39546;45.534;12.048;2023-10-08T18:20:17;16.35;;;11.82;;
53642;SDS011;39546;45.534;12.048;2023-10-08T18:26:24;17.53;;;13.67;;
53642;SDS011;39546;45.534;12.048;2023-10-08T18:32:27;19.15;;;13.68;;
53642;SDS011;39546;45.534;12.048;2023-10-08T18:39:04;15.70;;;12.60;;
53642;SDS011;39546;45.534;12.048;2023-10-08T18:45:14;16.37;;;13.10;;
53642;SDS011;39546;45.534;12.048;2023-10-08T18:58:54;16.98;;;12.43;;
53642;SDS011;39546;45.534;12.048;2023-10-08T19:04:56;19.42;;;13.90;;
53642;SDS011;39546;45.534;12.048;2023-10-08T19:10:58;20.33;;;14.40;;
53642;SDS011;39546;45.534;12.048;2023-10-08T19:17:01;19.75;;;14.05;;
53642;SDS011;39546;45.534;12.048;2023-10-08T19:23:03;20.08;;;14.65;;
53642;SDS011;39546;45.534;12.048;2023-10-08T19:29:06;16.70;;;12.77;;
53642;SDS011;39546;45.534;12.048;2023-10-08T19:35:09;18.62;;;12.75;;
53642;SDS011;39546;45.534;12.048;2023-10-08T19:41:13;18.90;;;14.90;;
53642;SDS011;39546;45.534;12.048;2023-10-08T19:47:16;19.27;;;15.20;;
53642;SDS011;39546;45.534;12.048;2023-10-08T19:53:18;18.95;;;14.15;;
53642;SDS011;39546;45.534;12.048;2023-10-08T19:59:39;18.20;;;13.32;;
53642;SDS011;39546;45.534;12.048;2023-10-08T20:05:42;17.58;;;13.60;;
53642;SDS011;39546;45.534;12.048;2023-10-08T20:11:45;19.15;;;13.27;;
53642;SDS011;39546;45.534;12.048;2023-10-08T20:17:47;19.80;;;15.35;;
53642;SDS011;39546;45.534;12.048;2023-10-08T20:23:51;18.33;;;14.35;;
53642;SDS011;39546;45.534;12.048;2023-10-08T20:29:53;20.62;;;14.98;;
53642;SDS011;39546;45.534;12.048;2023-10-08T20:35:56;25.00;;;15.13;;
53642;SDS011;39546;45.534;12.048;2023-10-08T20:41:58;16.25;;;13.10;;
53642;SDS011;39546;45.534;12.048;2023-10-08T20:48:00;24.67;;;16.33;;
53642;SDS011;39546;45.534;12.048;2023-10-08T20:54:03;22.55;;;16.40;;
53642;SDS011;39546;45.534;12.048;2023-10-08T21:00:05;20.35;;;18.12;;
53642;SDS011;39546;45.534;12.048;2023-10-08T21:06:09;20.65;;;15.50;;
53642;SDS011;39546;45.534;12.048;2023-10-08T21:12:11;24.98;;;18.70;;
53642;SDS011;39546;45.534;12.048;2023-10-08T21:18:19;21.83;;;15.43;;
53642;SDS011;39546;45.534;12.048;2023-10-08T21:24:21;21.25;;;16.33;;
53642;SDS011;39546;45.534;12.048;2023-10-08T21:30:23;24.15;;;17.45;;
53642;SDS011;39546;45.534;12.048;2023-10-08T21:36:29;18.65;;;14.15;;
53642;SDS011;39546;45.534;12.048;2023-10-08T21:42:31;20.17;;;14.68;;
53642;SDS011;39546;45.534;12.048;2023-10-08T21:48:33;21.00;;;17.25;;
53642;SDS011;39546;45.534;12.048;2023-10-08T21:54:37;22.33;;;15.80;;
53642;SDS011;39546;45.534;12.048;2023-10-08T22:00:39;23.30;;;16.33;;
53642;SDS011;39546;45.534;12.048;2023-10-08T22:06:48;19.85;;;15.20;;
53642;SDS011;39546;45.534;12.048;2023-10-08T22:12:50;23.77;;;18.08;;
53642;SDS011;39546;45.534;12.048;2023-10-08T22:18:55;21.20;;;18.17;;
53642;SDS011;39546;45.534;12.048;2023-10-08T22:24:58;21.62;;;15.65;;
53642;SDS011;39546;45.534;12.048;2023-10-08T22:31:00;18.95;;;16.52;;
53642;SDS011;39546;45.534;12.048;2023-10-08T22:37:10;22.42;;;17.15;;
53642;SDS011;39546;45.534;12.048;2023-10-08T22:43:20;22.73;;;16.62;;
53642;SDS011;39546;45.534;12.048;2023-10-08T22:49:24;26.80;;;18.83;;
53642;SDS011;39546;45.534;12.048;2023-10-08T22:55:26;20.58;;;16.62;;
53642;SDS011;39546;45.534;12.048;2023-10-08T23:01:29;27.90;;;19.37;;
53642;SDS011;39546;45.534;12.048;2023-10-08T23:07:31;26.30;;;18.70;;
53642;SDS011;39546;45.534;12.048;2023-10-08T23:13:33;22.65;;;16.95;;
53642;SDS011;39546;45.534;12.048;2023-10-08T23:19:37;23.58;;;16.23;;
53642;SDS011;39546;45.534;12.048;2023-10-08T23:25:39;22.00;;;17.02;;
53642;SDS011;39546;45.534;12.048;2023-10-08T23:31:41;19.70;;;16.92;;
53642;SDS011;39546;45.534;12.048;2023-10-08T23:37:44;24.75;;;18.65;;
53642;SDS011;39546;45.534;12.048;2023-10-08T23:43:55;20.02;;;16.02;;
53642;SDS011;39546;45.534;12.048;2023-10-08T23:49:57;20.20;;;16.05;;
53642;SDS011;39546;45.534;12.048;2023-10-08T23:56:17;23.77;;;19.00;;
